createdAt,value
2019-02-28T00:02:26.931Z,9.75
2019-02-28T00:07:31.835Z,9.80
2019-02-28T00:12:36.838Z,9.84
2019-02-28T00:17:43.562Z,9.73
2019-02-28T00:22:49.440Z,9.68
2019-02-28T00:27:54.484Z,9.68
2019-02-28T00:32:59.977Z,9.69
2019-02-28T00:38:05.081Z,9.62
2019-02-28T00:43:10.066Z,9.55
2019-02-28T00:48:15.071Z,9.33
2019-02-28T00:53:20.080Z,9.28
2019-02-28T00:58:28.675Z,9.23
2019-02-28T01:03:31.774Z,9.28
2019-02-28T01:08:36.835Z,9.32
2019-02-28T01:13:41.826Z,9.26
2019-02-28T01:18:47.004Z,9.24
2019-02-28T01:23:51.972Z,9.21
2019-02-28T01:29:01.357Z,9.04
2019-02-28T01:34:03.804Z,8.94
2019-02-28T01:39:09.067Z,8.90
2019-02-28T01:44:14.526Z,8.96
2019-02-28T01:49:19.522Z,9.07
2019-02-28T01:54:25.134Z,9.13
2019-02-28T01:59:31.262Z,8.82
2019-02-28T02:04:36.595Z,8.80
2019-02-28T02:09:42.729Z,8.83
2019-02-28T02:14:48.640Z,8.79
2019-02-28T02:19:53.626Z,8.76
2019-02-28T02:24:59.306Z,8.75
2019-02-28T02:30:13.670Z,8.57
2019-02-28T02:35:12.982Z,8.49
2019-02-28T02:40:23.007Z,8.47
2019-02-28T02:45:25.618Z,8.46
2019-02-28T02:50:35.922Z,8.42
2019-02-28T02:55:37.499Z,8.51
2019-02-28T03:00:49.543Z,8.53
2019-02-28T03:05:51.103Z,8.46
2019-02-28T03:10:56.265Z,8.50
2019-02-28T03:16:01.269Z,8.49
2019-02-28T03:21:06.654Z,8.59
2019-02-28T03:26:11.782Z,8.46
2019-02-28T03:31:16.723Z,8.49
2019-02-28T03:36:21.766Z,8.38
2019-02-28T03:41:26.735Z,8.32
2019-02-28T03:46:31.705Z,8.41
2019-02-28T03:51:36.711Z,8.44
2019-02-28T03:56:41.735Z,8.37
2019-02-28T04:01:46.840Z,8.54
2019-02-28T04:06:52.382Z,8.58
2019-02-28T04:11:57.354Z,8.61
2019-02-28T04:17:02.354Z,8.64
2019-02-28T04:22:08.476Z,8.58
2019-02-28T04:27:13.499Z,8.56
2019-02-28T04:32:18.483Z,8.49
2019-02-28T04:37:23.499Z,8.44
2019-02-28T04:42:28.470Z,8.44
2019-02-28T04:47:33.490Z,8.36
2019-02-28T04:52:38.444Z,8.41
2019-02-28T04:57:45.857Z,8.45
2019-02-28T05:02:53.996Z,8.48
2019-02-28T05:07:57.560Z,8.43
2019-02-28T05:13:02.570Z,8.42
2019-02-28T05:18:07.516Z,8.37
2019-02-28T05:23:12.555Z,8.32
2019-02-28T05:28:17.566Z,8.16
2019-02-28T05:33:22.643Z,8.13
2019-02-28T05:38:28.719Z,7.93
2019-02-28T05:43:33.727Z,7.97
2019-02-28T05:48:39.689Z,7.94
2019-02-28T05:53:44.702Z,7.76
2019-02-28T05:58:52.566Z,7.74
2019-02-28T06:03:56.449Z,7.73
2019-02-28T06:09:01.428Z,7.65
2019-02-28T06:14:08.386Z,7.68
2019-02-28T06:19:15.483Z,7.63
2019-02-28T06:24:20.488Z,7.59
2019-02-28T06:29:25.533Z,7.67
2019-02-28T06:34:30.624Z,7.52
2019-02-28T06:39:37.534Z,7.64
2019-02-28T06:44:42.556Z,7.70
2019-02-28T06:49:47.746Z,7.77
2019-02-28T06:54:54.328Z,7.75
2019-02-28T06:59:59.535Z,7.80
2019-02-28T07:05:04.702Z,7.98
2019-02-28T07:10:12.645Z,7.97
2019-02-28T07:15:23.690Z,8.06
2019-02-28T07:20:24.931Z,8.25
2019-02-28T07:25:33.079Z,8.28
2019-02-28T07:30:41.118Z,8.37
2019-02-28T07:35:46.864Z,8.62
2019-02-28T07:40:52.148Z,8.68
2019-02-28T07:45:57.238Z,8.79
2019-02-28T07:51:02.897Z,9.06
2019-02-28T07:56:11.648Z,9.33
2019-02-28T08:01:21.140Z,9.64
2019-02-28T08:06:26.382Z,9.73
2019-02-28T08:11:33.471Z,9.87
2019-02-28T08:16:39.124Z,9.98
2019-02-28T08:21:49.388Z,10.08
2019-02-28T08:26:53.654Z,10.30
2019-02-28T08:31:58.339Z,10.34
2019-02-28T08:37:03.798Z,10.59
2019-02-28T08:42:08.925Z,10.87
2019-02-28T08:47:55.451Z,10.87
2019-02-28T08:53:05.560Z,10.92
2019-02-28T08:58:12.393Z,10.96
2019-02-28T09:03:17.862Z,11.21
2019-02-28T09:08:25.338Z,11.32
2019-02-28T09:13:30.854Z,11.54
2019-02-28T09:18:35.994Z,11.65
2019-02-28T09:23:41.153Z,12.12
2019-02-28T09:28:47.500Z,13.45
2019-02-28T09:33:55.433Z,16.01
2019-02-28T09:39:00.381Z,18.22
2019-02-28T09:44:07.108Z,18.81
2019-02-28T09:49:12.945Z,20.01
2019-02-28T09:54:16.998Z,21.73
2019-02-28T09:59:20.840Z,23.04
2019-02-28T10:04:27.305Z,23.78
2019-02-28T10:09:30.599Z,24.34
2019-02-28T10:14:34.980Z,25.34
2019-02-28T10:19:45.488Z,24.60
2019-02-28T10:24:44.716Z,24.40
2019-02-28T10:29:48.545Z,25.22
2019-02-28T10:34:52.493Z,24.33
2019-02-28T10:39:56.807Z,22.49
2019-02-28T10:45:03.670Z,21.97
2019-02-28T10:50:07.744Z,21.62
2019-02-28T10:55:12.036Z,19.98
2019-02-28T11:00:20.310Z,18.94
2019-02-28T11:05:27.443Z,17.75
2019-02-28T11:10:36.846Z,17.85
2019-02-28T11:15:41.230Z,18.20
2019-02-28T11:20:45.211Z,19.17
2019-02-28T11:25:49.668Z,19.46
2019-02-28T11:30:53.588Z,18.21
2019-02-28T11:35:59.149Z,18.58
2019-02-28T11:41:03.298Z,20.21
2019-02-28T11:46:07.612Z,20.11
2019-02-28T11:51:11.564Z,19.92
2019-02-28T11:56:15.481Z,20.02
2019-02-28T12:01:19.353Z,19.76
2019-02-28T12:06:25.732Z,19.72
2019-02-28T12:11:28.981Z,20.51
2019-02-28T12:16:32.904Z,19.40
2019-02-28T12:21:38.112Z,20.08
2019-02-28T12:26:42.538Z,19.95
2019-02-28T12:31:46.403Z,19.54
2019-02-28T12:36:50.854Z,19.82
2019-02-28T12:41:59.545Z,19.47
2019-02-28T12:47:03.356Z,19.29
2019-02-28T12:52:07.480Z,18.02
2019-02-28T12:57:11.466Z,17.53
2019-02-28T13:02:15.509Z,17.73
2019-02-28T13:07:20.376Z,17.22
2019-02-28T13:12:25.392Z,16.67
2019-02-28T13:17:31.691Z,16.19
2019-02-28T13:22:37.439Z,16.09
2019-02-28T13:27:45.200Z,15.86
2019-02-28T13:32:49.177Z,15.90
2019-02-28T13:37:54.369Z,15.75
2019-02-28T13:43:01.670Z,15.82
2019-02-28T13:48:06.384Z,15.69
2019-02-28T13:53:18.973Z,15.63
2019-02-28T13:58:21.541Z,15.46
2019-02-28T14:03:25.863Z,15.37
2019-02-28T14:08:31.304Z,15.34
2019-02-28T14:13:36.362Z,15.19
2019-02-28T14:18:42.581Z,15.04
2019-02-28T14:23:47.091Z,14.96
2019-02-28T14:28:53.017Z,14.88
2019-02-28T14:33:57.412Z,14.82
2019-02-28T14:39:01.358Z,14.75
2019-02-28T14:44:06.931Z,14.64
2019-02-28T14:49:12.597Z,14.67
2019-02-28T14:54:16.484Z,14.67
2019-02-28T14:59:20.422Z,14.69
2019-02-28T15:04:24.344Z,14.68
2019-02-28T15:09:29.836Z,14.55
2019-02-28T15:14:34.190Z,14.51
2019-02-28T15:19:38.148Z,14.41
2019-02-28T15:24:43.798Z,14.32
2019-02-28T15:29:47.576Z,14.31
2019-02-28T15:34:51.434Z,14.27
2019-02-28T15:39:55.556Z,14.23
2019-02-28T15:45:00.427Z,14.12
2019-02-28T15:50:05.460Z,13.99
2019-02-28T15:55:09.357Z,13.96
2019-02-28T16:00:14.403Z,13.98
2019-02-28T16:05:18.643Z,13.92
2019-02-28T16:10:23.406Z,13.85
2019-02-28T16:15:27.343Z,13.81
2019-02-28T16:20:31.806Z,13.69
2019-02-28T16:25:36.720Z,13.66
2019-02-28T16:30:40.728Z,13.62
2019-02-28T16:35:51.416Z,13.60
2019-02-28T16:40:57.674Z,13.49
2019-02-28T16:46:01.278Z,13.47
2019-02-28T16:51:05.537Z,13.38
2019-02-28T16:56:09.522Z,13.24
2019-02-28T17:01:13.482Z,13.15
2019-02-28T17:06:17.467Z,13.09
2019-02-28T17:11:21.398Z,12.99
2019-02-28T17:16:33.766Z,12.95
2019-02-28T17:21:38.922Z,12.90
2019-02-28T17:27:02.368Z,12.89
2019-02-28T17:32:07.950Z,12.86
2019-02-28T17:37:11.935Z,12.86
2019-02-28T17:42:15.965Z,12.81
2019-02-28T17:47:25.653Z,12.73
2019-02-28T17:52:33.845Z,12.74
2019-02-28T17:57:45.361Z,12.60
2019-02-28T18:03:09.756Z,12.53
2019-02-28T18:08:21.454Z,12.45
2019-02-28T18:13:35.190Z,12.40
2019-02-28T18:18:57.047Z,12.34
2019-02-28T18:24:26.320Z,12.29
2019-02-28T18:29:48.258Z,12.23
2019-02-28T18:34:52.721Z,12.14
2019-02-28T18:40:03.434Z,12.09
2019-02-28T18:45:10.301Z,12.02
2019-02-28T18:50:16.941Z,12.05
2019-02-28T18:55:22.591Z,12.07
2019-02-28T19:00:27.786Z,12.00
2019-02-28T19:05:33.175Z,11.95
2019-02-28T19:10:38.674Z,11.96
2019-02-28T19:15:45.218Z,11.87
2019-02-28T19:20:50.451Z,11.87
2019-02-28T19:25:56.604Z,11.94
2019-02-28T19:31:02.296Z,11.87
2019-02-28T19:36:07.388Z,11.78
2019-02-28T19:41:12.763Z,11.68
2019-02-28T19:46:17.988Z,11.64
2019-02-28T19:51:23.377Z,11.62
2019-02-28T19:56:28.574Z,11.54
2019-02-28T20:01:33.808Z,11.53
2019-02-28T20:06:38.798Z,11.43
2019-02-28T20:11:43.832Z,11.44
2019-02-28T20:16:50.173Z,11.47
2019-02-28T20:21:56.924Z,11.39
2019-02-28T20:27:02.044Z,11.39
2019-02-28T20:32:07.172Z,11.34
2019-02-28T20:37:12.506Z,11.33
2019-02-28T20:42:19.562Z,11.30
2019-02-28T20:47:24.901Z,11.31
2019-02-28T20:52:30.008Z,11.32
2019-02-28T20:57:35.171Z,11.33
2019-02-28T21:02:40.313Z,11.34
2019-02-28T21:07:45.552Z,11.13
2019-02-28T21:12:50.870Z,11.08
2019-02-28T21:17:56.078Z,11.07
2019-02-28T21:23:01.151Z,11.11
2019-02-28T21:28:06.481Z,11.06
2019-02-28T21:33:11.712Z,11.07
2019-02-28T21:38:17.813Z,11.18
2019-02-28T21:43:23.249Z,11.22
2019-02-28T21:48:28.410Z,11.19
2019-02-28T21:53:33.766Z,11.01
2019-02-28T21:58:38.800Z,10.98
2019-02-28T22:03:43.837Z,11.01
2019-02-28T22:08:48.857Z,11.03
2019-02-28T22:13:53.900Z,11.00
2019-02-28T22:18:58.972Z,10.99
2019-02-28T22:24:04.067Z,10.96
2019-02-28T22:29:10.687Z,10.99
2019-02-28T22:34:36.364Z,10.93
2019-02-28T22:39:41.343Z,10.94
2019-02-28T22:44:46.398Z,10.98
2019-02-28T22:49:51.485Z,10.97
2019-02-28T22:54:56.447Z,10.97
2019-02-28T23:00:02.104Z,10.98
2019-02-28T23:05:08.790Z,11.01
2019-02-28T23:10:13.811Z,11.04
2019-02-28T23:15:19.636Z,11.05
2019-02-28T23:20:26.468Z,11.02
2019-02-28T23:25:31.467Z,11.01
2019-02-28T23:30:47.013Z,11.00
2019-02-28T23:35:52.175Z,10.97
2019-02-28T23:40:57.769Z,10.90
2019-02-28T23:46:02.803Z,10.97
2019-02-28T23:51:07.831Z,11.01
2019-02-28T23:56:12.829Z,11.06
